b2b-explorer.net

100 brs | 0.073 s Gast|Guest limit=100 max=100
ID target role source path created at
674847535 lanavediteseo.eu procida2022.com /procida-racconta 2025-11-21 23:18:48.251
674847429 shop.caremar.it procida2022.com /programma-index 2025-11-21 23:18:34.621
674847554 eventixgroup.it procida2022.com /cerimonia-inaugurale 2025-11-21 23:18:51.798
674847427 voiello.it procida2022.com /programma-index 2025-11-21 23:18:34.610
674847428 anm.it procida2022.com /programma-index 2025-11-21 23:18:34.616
674847430 eavsrl.it procida2022.com /programma-index 2025-11-21 23:18:34.625
674847578 fondazionecampaniadeifestival.it procida2022.com /collaterals-blog/blog-post-ti... 2025-11-21 23:18:57.790
674847517 lombarditiezzi.it procida2022.com /espressioni-teatro-contempora... 2025-11-21 23:18:46.369
674847432 campania.coldiretti.it procida2022.com /programma-index 2025-11-21 23:18:34.635
674847490 djangoconcerti.it procida2022.com /evento-conclusivo 2025-11-21 23:18:40.934
674847493 mondadori.it procida2022.com /premio-procida-elsa-morante 2025-11-21 23:18:41.123
674847491 fandangolibri.it procida2022.com /premio-procida-elsa-morante 2025-11-21 23:18:41.094
674847507 mann-napoli.it procida2022.com /greci-prima-dei-greci 2025-11-21 23:18:42.598
674847426 beniculturali.it procida2022.com /programma-index 2025-11-21 23:18:34.603
674847494 einaudi.it procida2022.com /premio-procida-elsa-morante 2025-11-21 23:18:41.134
674847508 pafleg.it procida2022.com /greci-prima-dei-greci 2025-11-21 23:18:42.603
674847533 innovationvillage.it procida2022.com /procida-hackultura 2025-11-21 23:18:47.380
674847551 fonolab.it procida2022.com /restart-from-the-future 2025-11-21 23:18:50.210
674847553 abana.it procida2022.com /scienza-aperta 2025-11-21 23:18:51.313
674847425 comune.procida.na.it procida2022.com / 2025-11-21 23:18:34.421

Netzwerk-Analyse

Visualisieren Sie komplexe Geschäftsbeziehungen in interaktiven Netzwerkdiagrammen

Intelligente Suche

Finden Sie Unternehmen und Verbindungen mit unserer fortschrittlichen Suchfunktion

Daten-Insights

Gewinnen Sie wertvolle Einblicke in Geschäftsstrukturen und -beziehungen

Best-Practice

Ziehen Sie sofort Nutzen aus den umfangreichen Such- und Recherchemöglichkeiten und verschaffen Sie sich Wettbewerbsvorteile.